Flight Track Log - Related Links

Times and Time Zones

All times are in EDT time to prevent confusion due to time zone crossing. See the SWA1496 flight status page for this flight to view local times or setup timezone preferences in your user account.

Time Position Orientation Groundspeed Altitude Reporting Facility
EDT Latitude Longitude Course Direction KTS MPH feet Rate Location/Type
Sat 10:20:41 AM 41.8333 -87.7500 277° West 213 245 2,700  Level Chicago TRACON
Sat 10:21:29 AM 41.8333 -87.8000 270° West 251 289 3,400 2,389 Climbing Chicago TRACON
Sat 10:22:29 AM 41.8167 -87.9000 257° West 251 289 7,000 3,277 Climbing Chicago TRACON
Sat 10:23:39 AM 41.8058 -88.0097 262° West 282 325 10,500 2,473 Climbing Chicago Center
Sat 10:24:40 AM 41.8047 -88.1186 269° West 296 341 12,400 2,244 Climbing Chicago Center
Sat 10:25:42 AM 41.8056 -88.2392 271° West 321 369 15,100 2,293 Climbing Chicago Center
Sat 10:26:00 AM 41.8718 -88.6385 277° West  Level FlightAware Approximate
Sat 10:26:43 AM 41.8519 -88.3611 297° West 387 445 17,100  Level Chicago Center
Sat 10:27:45 AM 41.9233 -88.5058 304° West 390 449 20,400 2,613 Climbing Chicago Center
Sat 10:28:47 AM 41.9869 -88.6328 304° West 406 467 22,500 1,951 Climbing Chicago Center
Sat 10:29:48 AM 42.0536 -88.7661 304° West 427 491 24,400 1,805 Climbing Chicago Center
Sat 10:30:50 AM 42.0975 -88.9122 292° West 448 516 26,200 1,645 Climbing Chicago Center
Sat 10:31:52 AM 42.0989 -89.0764 271° West 442 509 27,800 1,512 Climbing Chicago Center
Sat 10:32:53 AM 42.1017 -89.2497 271° West 458 527 29,300 1,463 Climbing Chicago Center
Sat 10:33:55 AM 42.1050 -89.4536 271° West 467 537 30,800 1,512 Climbing Chicago Center
Sat 10:34:56 AM 42.1100 -89.6308 272° West 473 544 32,400 1,415 Climbing Chicago Center
Sat 10:35:58 AM 42.1156 -89.8064 273° West 471 542 33,700 1,113 Climbing Chicago Center
Sat 10:37:00 AM 42.1214 -89.9753 273° West 471 542 34,700 1,024 Climbing Chicago Center
Sat 10:38:01 AM 42.1350 -90.1525 276° West 478 550 35,800 634 Climbing Chicago Center
Sat 10:39:03 AM 42.1497 -90.3303 276° West 482 555 36,000 98 Climbing Chicago Center
Sat 10:40:04 AM 42.1661 -90.5456 276° West 483 556 36,000  Level Chicago Center
Sat 10:41:06 AM 42.1786 -90.7239 275° West 481 554 36,000  Level Chicago Center
Sat 10:42:07 AM 42.1906 -90.9033 275° West 482 555 36,000  Level Chicago Center
Sat 10:43:09 AM 42.2031 -91.0794 276° West 478 550 36,000 145 Level Chicago Center
Sat 10:44:11 AM 42.2144 -91.2600 275° West 481 554 36,300 634 Climbing Chicago Center
Sat 10:45:12 AM 42.2269 -91.4364 276° West 475 547 37,300 829 Climbing Chicago Center
Sat 10:46:14 AM 42.2394 -91.6133 276° West 473 544 38,000 341 Climbing Chicago Center
Sat 10:47:15 AM 42.2494 -91.7900 274° West 473 544 38,000  Level Chicago Center
Sat 10:48:17 AM 42.2619 -92.0008 275° West 470 541 38,000  Level Chicago Center
Sat 10:49:18 AM 42.2722 -92.1764 275° West 470 541 38,000  Level Chicago Center
Sat 10:50:20 AM 42.2825 -92.3494 275° West 465 535 38,000  Level Chicago Center
Sat 10:51:24 AM 42.2925 -92.5264 274° West 468 539 38,000  Level Minneapolis Center
Sat 10:53:25 AM 42.3114 -92.8764 274° West 471 542 38,000  Level Chicago Center
Sat 10:54:26 AM 42.3203 -93.0531 274° West 474 545 38,000  Level Chicago Center
Sat 10:55:28 AM 42.3314 -93.2647 274° West 473 544 38,000  Level Chicago Center
Sat 10:56:29 AM 42.3394 -93.4394 274° West 471 542 38,000  Level Chicago Center
Sat 10:57:31 AM 42.3472 -93.6156 273° West 470 541 38,000  Level Chicago Center
Sat 10:58:45 AM 42.3572 -93.8233 274° West 467 537 38,000  Level Minneapolis Center
Sat 10:59:46 AM 42.3650 -93.9958 274° West 465 535 38,000  Level Minneapolis Center
Sat 11:00:48 AM 42.3725 -94.1703 273° West 468 539 38,000  Level Minneapolis Center
Sat 11:02:01 AM 42.3811 -94.3589 274° West 465 535 38,000  Level Minneapolis Center
Sat 11:03:03 AM 42.3894 -94.5681 273° West 466 536 38,000  Level Minneapolis Center
Sat 11:04:04 AM 42.3947 -94.7400 272° West 461 531 38,000  Level Minneapolis Center
Sat 11:05:05 AM 42.4008 -94.9119 273° West 459 528 38,000  Level Minneapolis Center
Sat 11:06:06 AM 42.4081 -95.1172 273° West 457 526 38,000  Level Minneapolis Center
Sat 11:07:07 AM 42.4136 -95.2861 273° West 454 522 38,000  Level Minneapolis Center
Sat 11:08:09 AM 42.4194 -95.4536 273° West 449 517 38,000  Level Minneapolis Center
Sat 11:09:10 AM 42.4242 -95.6186 272° West 442 509 38,000  Level Minneapolis Center
Sat 11:10:11 AM 42.4283 -95.7842 272° West 440 506 38,000  Level Minneapolis Center
Sat 11:11:12 AM 42.4322 -95.9506 272° West 444 511 38,000  Level Minneapolis Center
Sat 11:12:13 AM 42.4364 -96.1147 272° West 441 507 38,000  Level Minneapolis Center
Sat 11:13:14 AM 42.4403 -96.2797 272° West 439 505 38,000  Level Minneapolis Center
Sat 11:14:16 AM 42.4442 -96.4464 272° West 444 511 38,000  Level Minneapolis Center
Sat 11:15:17 AM 42.4475 -96.6119 272° West 443 510 38,000  Level Minneapolis Center
Sat 11:16:18 AM 42.4514 -96.8114 272° West 444 511 38,000  Level Minneapolis Center
Sat 11:17:19 AM 42.4544 -96.9764 271° West 441 507 38,000  Level Minneapolis Center
Sat 11:18:20 AM 42.4569 -97.1444 271° West 443 510 38,000  Level Minneapolis Center
Sat 11:19:22 AM 42.4600 -97.3106 271° West 444 511 38,000  Level Minneapolis Center
Sat 11:20:23 AM 42.4614 -97.4767 271° West 443 510 38,000  Level Minneapolis Center
Sat 11:21:24 AM 42.4639 -97.6444 271° West 445 512 38,000  Level Minneapolis Center
Sat 11:22:26 AM 42.4653 -97.8125 271° West 447 514 38,000  Level Minneapolis Center
Sat 11:23:27 AM 42.4656 -98.0014 270° West 450 518 38,000  Level Minneapolis Center
Sat 11:24:28 AM 42.4675 -98.1719 271° West 453 521 38,000  Level Minneapolis Center
Sat 11:25:30 AM 42.4683 -98.3425 270° West 454 522 38,000  Level Minneapolis Center
Sat 11:26:31 AM 42.4692 -98.5125 270° West 453 521 38,000  Level Minneapolis Center
Sat 11:27:32 AM 42.4681 -98.6831 270° West 453 521 38,000  Level Minneapolis Center
Sat 11:28:34 AM 42.4406 -98.8539 258° West 462 532 38,000  Level Minneapolis Center
Sat 11:29:35 AM 42.4103 -99.0206 256° West 460 529 38,000  Level Minneapolis Center
Sat 11:30:36 AM 42.3750 -99.2222 257° West 461 531 38,000  Level Minneapolis Center
Sat 11:31:38 AM 42.3447 -99.3847 256° West 451 519 38,000  Level Minneapolis Center
Sat 11:32:11 AM 42.3325 -99.4486 256° West 445 512 38,000  Level Denver Center
Sat 11:33:13 AM 42.2961 -99.6431 256° West 446 513 38,000  Level Denver Center
Sat 11:34:14 AM 42.2650 -99.8097 256° West 445 512 38,000  Level Denver Center
Sat 11:35:16 AM 42.2358 -99.9650 256° West 447 514 38,000  Level Denver Center
Sat 11:36:18 AM 42.2014 -100.1444 256° West 447 514 38,000  Level Denver Center
Sat 11:37:20 AM 42.1725 -100.2989 256° West 446 513 38,000  Level Denver Center
Sat 11:38:21 AM 42.1417 -100.4556 255° West 450 518 38,000  Level Denver Center
Sat 11:39:23 AM 42.1067 -100.6358 255° West 449 517 38,000  Level Denver Center
Sat 11:40:25 AM 42.0769 -100.7900 255° West 446 513 38,000  Level Denver Center
Sat 11:41:27 AM 42.0417 -100.9689 255° West 444 511 38,000  Level Denver Center
Sat 11:42:28 AM 42.0103 -101.1211 255° West 443 510 38,000  Level Denver Center
Sat 11:43:30 AM 41.9747 -101.2983 255° West 442 509 38,000  Level Denver Center
Sat 11:44:32 AM 41.9436 -101.4517 255° West 444 511 38,000  Level Denver Center
Sat 11:45:33 AM 41.9086 -101.6258 255° West 436 502 38,000  Level Denver Center
Sat 11:46:35 AM 41.8775 -101.7756 254° West 436 502 38,000  Level Denver Center
Sat 11:47:37 AM 41.8450 -101.9256 254° West 440 506 38,000  Level Denver Center
Sat 11:48:39 AM 41.8097 -102.0994 255° West 437 503 38,000  Level Denver Center
Sat 11:49:40 AM 41.7775 -102.2472 254° West 436 502 38,000  Level Denver Center
Sat 11:50:42 AM 41.7403 -102.4225 254° West 437 503 38,000  Level Denver Center
Sat 11:51:44 AM 41.7094 -102.5722 255° West 437 503 38,000  Level Denver Center
Sat 11:52:46 AM 41.6706 -102.7481 254° West 440 506 38,000  Level Denver Center
Sat 11:53:47 AM 41.6375 -102.9008 254° West 443 510 38,000  Level Denver Center
Sat 11:54:49 AM 41.5994 -103.0733 254° West 437 503 38,000  Level Denver Center
Sat 11:55:51 AM 41.5667 -103.2236 254° West 438 504 38,000  Level Denver Center
Sat 11:56:52 AM 41.5339 -103.3728 254° West 438 504 38,000  Level Denver Center
Sat 11:57:54 AM 41.4942 -103.5478 253° West 437 503 38,000  Level Denver Center
Sat 11:58:56 AM 41.4603 -103.6981 253° West 440 506 38,000  Level Denver Center
Sat 11:59:58 AM 41.4208 -103.8714 253° West 439 505 38,000  Level Denver Center
Sat 12:00:59 PM 41.3867 -104.0214 253° West 439 505 38,000  Level Denver Center
Sat 12:02:13 PM 41.3519 -104.1681 253° West 437 503 38,000  Level Denver Center
Sat 12:03:15 PM 41.3067 -104.3664 253° West 438 504 38,000  Level Denver Center
Sat 12:04:17 PM 41.2658 -104.5397 253° West 438 504 38,000  Level Denver Center
Sat 12:05:19 PM 41.2308 -104.6886 253° West 441 507 38,000  Level Denver Center
Sat 12:06:20 PM 41.1989 -104.8383 254° West 438 504 38,000  Level Denver Center
Sat 12:07:22 PM 41.1686 -105.0144 257° West 436 502 38,000  Level Denver Center
Sat 12:08:24 PM 41.1419 -105.1644 257° West 436 502 38,000  Level Denver Center
Sat 12:09:25 PM 41.1114 -105.3414 257° West 439 505 38,000  Level Denver Center
Sat 12:10:27 PM 41.0844 -105.4897 256° West 436 502 38,000  Level Denver Center
Sat 12:11:29 PM 41.0533 -105.6631 257° West 432 497 38,000  Level Denver Center
Sat 12:12:31 PM 41.0267 -105.8117 257° West 432 497 38,000  Level Denver Center
Sat 12:13:33 PM 40.9972 -105.9683 256° West 432 497 38,000  Level Denver Center
Sat 12:14:34 PM 40.9692 -106.1231 257° West 431 496 38,000  Level Denver Center
Sat 12:15:36 PM 40.9397 -106.2836 256° West 433 498 38,000  Level Denver Center
Sat 12:16:38 PM 40.9081 -106.4561 256° West 435 501 38,000  Level Denver Center
Sat 12:17:40 PM 40.8781 -106.6019 255° West 430 495 38,000  Level Denver Center
Sat 12:18:42 PM 40.8506 -106.7497 256° West 432 497 38,000  Level Denver Center
Sat 12:19:43 PM 40.8183 -106.9203 256° West 430 495 38,000  Level Denver Center
Sat 12:20:45 PM 40.7903 -107.0681 256° West 433 498 38,000  Level Denver Center
Sat 12:21:47 PM 40.7569 -107.2392 256° West 432 497 38,000  Level Denver Center
Sat 12:22:49 PM 40.7258 -107.3944 255° West 428 493 38,000  Level Denver Center
Sat 12:23:51 PM 40.6969 -107.5403 255° West 429 494 38,000  Level Denver Center
Sat 12:24:52 PM 40.6642 -107.7067 255° West 423 487 38,000  Level Denver Center
Sat 12:25:54 PM 40.6342 -107.8489 255° West 421 484 38,000  Level Denver Center
Sat 12:26:56 PM 40.6072 -107.9897 256° West 416 479 38,000  Level Denver Center
Sat 12:27:58 PM 40.5744 -108.1517 255° West 412 474 38,000  Level Denver Center
Sat 12:28:17 PM 40.5658 -108.1911 254° West 414 476 38,000  Level Salt Lake Center
Sat 12:29:19 PM 40.5325 -108.3542 255° West 412 474 38,000  Level Salt Lake Center
Sat 12:30:01 PM 40.5117 -108.4528 255° West 412 474 38,000  Level Denver Center
Sat 12:31:03 PM 40.4828 -108.5883 254° West 406 467 38,000  Level Denver Center
Sat 12:32:05 PM 40.4494 -108.7500 255° West 410 472 38,000  Level Denver Center
Sat 12:33:07 PM 40.4200 -108.8878 254° West 411 473 38,000  Level Denver Center
Sat 12:33:25 PM 40.4100 -108.9342 254° West 412 474 38,000  Level Salt Lake Center
Sat 12:34:26 PM 40.3769 -109.0939 255° West 407 468 38,000  Level Salt Lake Center
Sat 12:35:28 PM 40.3469 -109.2300 254° West 408 470 38,000  Level Salt Lake Center
Sat 12:36:29 PM 40.3175 -109.3686 254° West 411 473 38,000  Level Salt Lake Center
Sat 12:37:31 PM 40.2825 -109.5281 254° West 411 473 38,000  Level Salt Lake Center
Sat 12:38:32 PM 40.2519 -109.6639 254° West 409 471 38,000  Level Salt Lake Center
Sat 12:39:34 PM 40.2172 -109.8214 254° West 406 467 38,000  Level Salt Lake Center
Sat 12:40:35 PM 40.1881 -109.9550 254° West 402 463 38,000  Level Salt Lake Center
Sat 12:41:37 PM 40.1536 -110.1097 254° West 399 459 38,000  Level Salt Lake Center
Sat 12:42:38 PM 40.1122 -110.2375 247° West 398 458 38,000  Level Salt Lake Center
Sat 12:43:39 PM 40.0689 -110.3656 246° West 402 463 38,000  Level Salt Lake Center
Sat 12:44:41 PM 40.0172 -110.5142 246° West 403 464 38,000  Level Salt Lake Center
Sat 12:45:42 PM 39.9717 -110.6419 245° Southwest 405 466 38,000  Level Salt Lake Center
Sat 12:46:44 PM 39.9211 -110.7911 246° West 404 465 38,000  Level Salt Lake Center
Sat 12:47:45 PM 39.8758 -110.9189 245° Southwest 406 467 38,000  Level Salt Lake Center
Sat 12:48:47 PM 39.8317 -111.0461 246° West 405 466 38,000  Level Salt Lake Center
Sat 12:49:48 PM 39.7789 -111.1933 245° Southwest 403 464 38,000  Level Salt Lake Center
Sat 12:50:49 PM 39.7369 -111.3133 246° West 402 463 38,000  Level Salt Lake Center
Sat 12:51:51 PM 39.6894 -111.4467 245° Southwest 406 467 38,000  Level Salt Lake Center
Sat 12:52:52 PM 39.6333 -111.6050 245° Southwest 404 465 38,000  Level Salt Lake Center
Sat 12:53:53 PM 39.5850 -111.7369 245° Southwest 406 467 38,000  Level Salt Lake Center
Sat 12:54:55 PM 39.5367 -111.8694 245° Southwest 407 468 38,000  Level Salt Lake Center
Sat 12:55:56 PM 39.4892 -112.0019 245° Southwest 406 467 38,000  Level Salt Lake Center
Sat 12:56:57 PM 39.4400 -112.1333 244° Southwest 405 466 38,000  Level Salt Lake Center
Sat 12:57:59 PM 39.3917 -112.2675 245° Southwest 410 472 38,000  Level Salt Lake Center
Sat 12:59:00 PM 39.3419 -112.4011 244° Southwest 413 475 38,000  Level Salt Lake Center
Sat 01:00:01 PM 39.2975 -112.5364 247° West 410 472 38,000  Level Salt Lake Center
Sat 01:01:03 PM 39.2669 -112.7017 257° West 413 475 38,000  Level Salt Lake Center
Sat 01:02:04 PM 39.2400 -112.8453 256° West 414 476 38,000  Level Salt Lake Center
Sat 01:03:06 PM 39.2139 -112.9894 257° West 415 478 38,000  Level Salt Lake Center
Sat 01:04:07 PM 39.1872 -113.1303 256° West 411 473 38,000  Level Salt Lake Center
Sat 01:05:08 PM 39.1606 -113.2728 256° West 410 472 38,000  Level Salt Lake Center
Sat 01:06:10 PM 39.1336 -113.4181 257° West 415 478 38,000  Level Salt Lake Center
Sat 01:07:11 PM 39.1058 -113.5611 256° West 415 478 38,000  Level Salt Lake Center
Sat 01:08:12 PM 39.0733 -113.7331 256° West 415 478 38,000  Level Salt Lake Center
Sat 01:09:13 PM 39.0461 -113.8750 256° West 412 474 38,000  Level Salt Lake Center
Sat 01:10:15 PM 39.0175 -114.0186 256° West 416 479 38,000  Level Salt Lake Center
Sat 01:11:16 PM 38.9900 -114.1628 256° West 417 480 38,000  Level Salt Lake Center
Sat 01:12:18 PM 38.9608 -114.3033 255° West 411 473 38,000  Level Salt Lake Center
Sat 01:13:19 PM 38.9328 -114.4461 256° West 413 475 38,000  Level Salt Lake Center
Sat 01:14:20 PM 38.9053 -114.5892 256° West 415 478 38,000  Level Salt Lake Center
Sat 01:15:22 PM 38.8764 -114.7303 255° West 411 473 38,000  Level Salt Lake Center
Sat 01:16:23 PM 38.8483 -114.8717 256° West 412 474 38,000  Level Salt Lake Center
Sat 01:17:24 PM 38.8125 -115.0408 255° West 411 473 38,000  Level Salt Lake Center
Sat 01:18:26 PM 38.7819 -115.1847 255° West 417 480 38,000  Level Salt Lake Center
Sat 01:19:27 PM 38.7517 -115.3253 255° West 417 480 38,000  Level Salt Lake Center
Sat 01:20:29 PM 38.7250 -115.4561 255° West 411 473 38,000  Level Salt Lake Center
Sat 01:21:30 PM 38.6958 -115.5961 255° West 408 470 38,000  Level Salt Lake Center
Sat 01:22:31 PM 38.6592 -115.7675 255° West 416 479 38,000  Level Salt Lake Center
Sat 01:23:33 PM 38.6303 -115.9092 255° West 413 475 38,000  Level Salt Lake Center
Sat 01:24:34 PM 38.5989 -116.0525 254° West 418 481 38,000  Level Salt Lake Center
Sat 01:25:19 PM 38.5819 -116.1367 256° West 414 476 38,000  Level Oakland Center
Sat 01:26:20 PM 38.5447 -116.3083 255° West 417 480 38,000  Level Oakland Center
Sat 01:27:22 PM 38.5133 -116.4517 254° West 419 482 38,000  Level Oakland Center
Sat 01:27:38 PM 38.5069 -116.4800 254° West 419 482 38,000  Level Salt Lake Center
Sat 01:28:40 PM 38.4753 -116.6225 254° West 417 480 38,000  Level Salt Lake Center
Sat 01:29:24 PM 38.4506 -116.7353 254° West 416 479 38,000  Level Oakland Center
Sat 01:30:25 PM 38.4189 -116.8783 254° West 419 482 38,000  Level Oakland Center
Sat 01:31:27 PM 38.3878 -117.0178 254° West 415 478 38,000  Level Oakland Center
Sat 01:31:44 PM 38.3739 -117.0739 252° West 416 479 38,000  Level Salt Lake Center
Sat 01:32:28 PM 38.3564 -117.1578 255° West 416 479 38,000  Level Oakland Center
Sat 01:33:29 PM 38.3253 -117.3006 255° West 417 480 38,000  Level Oakland Center
Sat 01:34:31 PM 38.3053 -117.4708 262° West 417 480 38,000  Level Oakland Center
Sat 01:35:32 PM 38.2864 -117.6156 261° West 418 481 38,000 -393 Level Oakland Center
Sat 01:36:33 PM 38.2681 -117.7614 261° West 419 482 37,200 -836 Descending Oakland Center
Sat 01:37:34 PM 38.2503 -117.9081 261° West 422 486 36,300 -585 Descending Oakland Center
Sat 01:38:36 PM 38.2311 -118.0550 261° West 420 483 36,000 -146 Descending Oakland Center
Sat 01:39:37 PM 38.2114 -118.2086 261° West 415 478 36,000  Level Oakland Center
Sat 01:40:38 PM 38.1925 -118.3536 261° West 415 478 36,000  Level Oakland Center
Sat 01:41:39 PM 38.1744 -118.4978 261° West 412 474 36,000  Level Oakland Center
Sat 01:42:40 PM 38.1550 -118.6392 260° West 408 470 36,000  Level Oakland Center
Sat 01:43:42 PM 38.1356 -118.7819 260° West 408 470 36,000  Level Oakland Center
Sat 01:44:43 PM 38.1139 -118.9408 260° West 408 470 36,000  Level Oakland Center
Sat 01:45:44 PM 38.0961 -119.0811 261° West 404 465 36,000  Level Oakland Center
Sat 01:46:45 PM 38.0769 -119.2158 260° West 406 467 36,000  Level Oakland Center
Sat 01:47:47 PM 38.0597 -119.3575 261° West 406 467 36,000  Level Oakland Center
Sat 01:48:48 PM 38.0375 -119.5031 259° West 413 475 36,000  Level Oakland Center
Sat 01:49:49 PM 38.0181 -119.6469 260° West 412 474 36,000  Level Oakland Center
Sat 01:50:50 PM 37.9950 -119.7908 259° West 416 479 36,000 -829 Level Oakland Center
Sat 01:51:52 PM 37.9764 -119.9339 261° West 411 473 34,300 -2,390 Descending Oakland Center
Sat 01:52:53 PM 37.9497 -120.1042 259° West 408 470 31,100 -2,213 Descending Oakland Center
Sat 01:53:54 PM 37.9286 -120.2475 259° West 412 474 29,800 -1,820 Descending Oakland Center
Sat 01:54:55 PM 37.9064 -120.3933 259° West 419 482 27,400 -2,341 Descending Oakland Center
Sat 01:55:57 PM 37.8847 -120.5333 259° West 406 467 25,000 -2,293 Descending Oakland Center
Sat 01:56:58 PM 37.8656 -120.6692 260° West 396 456 22,700 -2,260 Descending Oakland Center
Sat 01:57:14 PM 37.8667 -120.7000 273° West 386 444 22,100 -1,114 Descending Northern Cal TRACON
Sat 01:58:08 PM 37.8500 -120.8333 261° West 374 430 21,400 -1,368 Descending Northern Cal TRACON
Sat 01:59:08 PM 37.8500 -120.9667 270° West 375 432 19,500 -2,150 Descending Northern Cal TRACON
Sat 02:00:08 PM 37.8333 -121.0833 260° West 366 421 17,100 -2,300 Descending Northern Cal TRACON
Sat 02:01:08 PM 37.8167 -121.2167 261° West 418 481 14,900 -2,150 Descending Northern Cal TRACON
Sat 02:02:08 PM 37.7833 -121.3333 250° West 350 403 12,800 -2,100 Descending Northern Cal TRACON
Sat 02:03:08 PM 37.7333 -121.4500 242° Southwest 344 396 10,700 -1,400 Descending Northern Cal TRACON
Sat 02:04:08 PM 37.7000 -121.5500 247° West 301 346 10,000 -991 Descending Northern Cal TRACON
Sat 02:05:03 PM 37.6833 -121.6333 256° West 281 323 8,800 -1,474 Descending Northern Cal TRACON
Sat 02:06:02 PM 37.6667 -121.7167 256° West 276 318 7,200 -1,563 Descending Northern Cal TRACON
Sat 02:07:02 PM 37.6667 -121.8167 270° West 268 308 5,700 -1,350 Descending Northern Cal TRACON
Sat 02:08:02 PM 37.6500 -121.9000 256° West 263 303 4,500 -800 Descending Northern Cal TRACON
Sat 02:09:02 PM 37.6167 -121.9833 243° Southwest 233 268 4,100 -900 Descending Northern Cal TRACON
Sat 02:10:02 PM 37.6000 -122.0667 256° West 243 280 2,700 -992 Descending Northern Cal TRACON
Sat 02:11:03 PM 37.6333 -122.1167 310° West 193 222 2,100 -793 Descending Northern Cal TRACON
Sat 02:12:03 PM 37.6667 -122.1667 310° West 169 194 1,100 -947 Descending Northern Cal TRACON
Sat 02:12:57 PM 37.7000 -122.2000 322° Northwest 135 155 300 27,920 Descending Northern Cal TRACON
Sat 02:13:18 PM 37.7006 -122.2131 273° West 160 184 36,000 102,000 Climbing Oakland Center
Sat 02:15:00 PM 37.7167 -122.2167 270° West  Level FlightAware Approximate
Sat 02:22:00 PM 37.7213 -122.2207 270° West  Level Estimated

Login

Don't have an account? Register now (free) for customized features, flight alerts, and more!